Ruston, Louisiana
Current Conditions -  °F | °C
As of 6:15 AM on Sunday 25 Jan 2015 (Local Time) from KRSN Reporting Station
Clear Clear  
Wind Chill: 34°   Ceiling: Unl
Heat Index: 40°   Visibility: 10mi
Dew Point: 37°   Wind: 8mph
Humidity: 89%   Direction: 220°SW
Pressure: 29.95"   Gusts: NA
Location:  32.53°N, 92.64°W
Report Text: KRSN 251215Z AUTO 22007KT 10SM CLR 04/03 A2995 RMK AO2 T00420026
Loading
Personal Weather Stations






























Interactive Weather Map New forecast layout! Learn more

10-Day Weather Forecast

Advertisements
Track Severe Weather on mobile